createdAt,value
2022-11-04T00:01:55.728Z,8.12
2022-11-04T00:04:25.221Z,8.05
2022-11-04T00:06:57.587Z,8.04
2022-11-04T00:09:30.170Z,7.98
2022-11-04T00:12:16.232Z,7.97
2022-11-04T00:14:44.030Z,8.00
2022-11-04T00:17:24.298Z,7.96
2022-11-04T00:20:12.231Z,7.97
2022-11-04T00:23:00.623Z,7.95
2022-11-04T00:25:46.441Z,7.92
2022-11-04T00:28:37.533Z,7.91
2022-11-04T00:31:26.509Z,7.88
2022-11-04T00:34:02.455Z,7.86
2022-11-04T00:36:35.452Z,7.84
2022-11-04T00:39:04.752Z,7.82
2022-11-04T00:41:43.441Z,7.86
2022-11-04T00:46:56.282Z,7.86
2022-11-04T00:49:25.675Z,7.87
2022-11-04T00:51:52.879Z,7.86
2022-11-04T00:54:20.134Z,7.87
2022-11-04T00:56:48.771Z,7.85
2022-11-04T00:59:16.038Z,7.82
2022-11-04T01:01:43.929Z,7.81
2022-11-04T01:04:14.539Z,7.85
2022-11-04T01:06:41.884Z,7.82
2022-11-04T01:09:15.900Z,7.80
2022-11-04T01:11:43.211Z,7.81
2022-11-04T01:14:10.755Z,7.82
2022-11-04T01:16:42.164Z,7.87
2022-11-04T01:19:10.881Z,7.87
2022-11-04T01:21:38.491Z,7.86
2022-11-04T01:24:06.049Z,7.86
2022-11-04T01:27:02.465Z,7.83
2022-11-04T01:29:28.670Z,7.85
2022-11-04T01:31:58.153Z,7.86
2022-11-04T01:34:42.390Z,7.89
2022-11-04T01:37:14.340Z,7.90
2022-11-04T01:39:44.605Z,7.90
2022-11-04T01:42:15.104Z,7.89
2022-11-04T01:44:49.055Z,7.91
2022-11-04T01:48:04.849Z,7.90
2022-11-04T01:50:34.359Z,7.90
2022-11-04T01:53:10.155Z,7.91
2022-11-04T01:55:45.544Z,7.91
2022-11-04T01:58:18.378Z,7.92
2022-11-04T02:00:46.298Z,7.91
2022-11-04T02:03:20.278Z,7.95
2022-11-04T02:05:51.243Z,7.96
2022-11-04T02:08:24.283Z,7.97
2022-11-04T02:11:09.257Z,7.99
2022-11-04T02:13:37.233Z,8.01
2022-11-04T02:16:12.727Z,8.02
2022-11-04T02:18:51.854Z,8.05
2022-11-04T02:21:46.795Z,8.09
2022-11-04T02:24:35.179Z,8.10
2022-11-04T02:27:20.057Z,8.07
2022-11-04T02:30:08.039Z,8.06
2022-11-04T02:33:01.065Z,8.05
2022-11-04T02:35:32.707Z,8.09
2022-11-04T02:38:21.456Z,8.11
2022-11-04T02:41:04.885Z,8.10
2022-11-04T02:44:00.193Z,8.09
2022-11-04T02:46:40.620Z,8.08
2022-11-04T02:49:31.095Z,8.09
2022-11-04T02:52:12.953Z,8.06
2022-11-04T02:54:47.685Z,8.07
2022-11-04T02:57:21.997Z,8.07
2022-11-04T02:59:56.210Z,8.03
2022-11-04T03:02:31.512Z,8.04
2022-11-04T03:04:59.291Z,7.98
2022-11-04T03:07:31.860Z,7.99
2022-11-04T03:10:05.554Z,7.96
2022-11-04T03:13:05.402Z,7.93
2022-11-04T03:15:35.125Z,7.86
2022-11-04T03:18:12.491Z,7.81
2022-11-04T03:20:42.057Z,7.77
2022-11-04T03:23:11.111Z,7.74
2022-11-04T03:25:43.364Z,7.67
2022-11-04T03:28:32.340Z,7.64
2022-11-04T03:31:02.492Z,7.60
2022-11-04T03:33:35.811Z,7.60
2022-11-04T03:36:04.492Z,7.59
2022-11-04T03:38:39.286Z,7.61
2022-11-04T03:41:11.286Z,7.64
2022-11-04T03:43:39.025Z,7.67
2022-11-04T03:46:06.592Z,7.71
2022-11-04T03:48:34.118Z,7.73
2022-11-04T03:51:01.549Z,7.76
2022-11-04T03:53:29.418Z,7.78
2022-11-04T03:56:09.150Z,7.78
2022-11-04T03:58:58.515Z,7.80
2022-11-04T04:02:04.543Z,7.80
2022-11-04T04:04:40.781Z,7.83
2022-11-04T04:07:15.355Z,7.82
2022-11-04T04:09:46.734Z,7.83
2022-11-04T04:12:19.502Z,7.85
2022-11-04T04:14:52.524Z,7.84
2022-11-04T04:17:31.456Z,7.82
2022-11-04T04:20:02.347Z,7.84
2022-11-04T04:22:57.391Z,7.85
2022-11-04T04:25:54.693Z,7.89
2022-11-04T04:28:22.384Z,7.92
2022-11-04T04:30:50.123Z,7.95
2022-11-04T04:33:19.468Z,7.97
2022-11-04T04:35:54.362Z,7.98
2022-11-04T04:38:51.313Z,8.02
2022-11-04T04:41:46.213Z,8.00
2022-11-04T04:44:42.761Z,8.01
2022-11-04T04:47:11.680Z,8.01
2022-11-04T04:49:52.708Z,8.02
2022-11-04T04:52:21.032Z,8.03
2022-11-04T04:54:48.268Z,8.07
2022-11-04T04:57:18.919Z,8.10
2022-11-04T04:59:46.092Z,8.12
2022-11-04T05:02:15.288Z,8.17
2022-11-04T05:04:43.380Z,8.16
2022-11-04T05:07:11.673Z,8.18
2022-11-04T05:09:39.862Z,8.21
2022-11-04T05:12:07.469Z,8.22
2022-11-04T05:14:38.180Z,8.29
2022-11-04T05:17:05.545Z,8.33
2022-11-04T05:19:33.539Z,8.35
2022-11-04T05:22:04.243Z,8.37
2022-11-04T05:24:32.821Z,8.37
2022-11-04T05:27:00.086Z,8.39
2022-11-04T05:29:36.435Z,8.42
2022-11-04T05:32:03.765Z,8.45
2022-11-04T05:34:39.254Z,8.51
2022-11-04T05:37:06.978Z,8.58
2022-11-04T05:39:36.789Z,8.66
2022-11-04T05:42:06.608Z,8.73
2022-11-04T05:44:46.766Z,8.80
2022-11-04T05:47:16.642Z,8.86
2022-11-04T05:49:44.501Z,8.91
2022-11-04T05:52:14.927Z,8.94
2022-11-04T05:54:45.616Z,9.06
2022-11-04T05:57:13.222Z,9.11
2022-11-04T05:59:45.653Z,9.20
2022-11-04T06:02:13.200Z,9.24
2022-11-04T06:04:40.883Z,9.28
2022-11-04T06:07:09.293Z,9.40
2022-11-04T06:09:44.175Z,9.48
2022-11-04T06:12:18.243Z,9.52
2022-11-04T06:14:56.072Z,9.50
2022-11-04T06:17:28.181Z,9.49
2022-11-04T06:19:55.390Z,9.48
2022-11-04T06:22:29.358Z,9.60
2022-11-04T06:25:11.106Z,9.68
2022-11-04T06:30:26.446Z,9.94
2022-11-04T06:32:58.045Z,10.11
2022-11-04T06:35:25.307Z,10.27
2022-11-04T06:38:10.685Z,10.35
2022-11-04T06:40:40.373Z,10.47
2022-11-04T06:43:13.223Z,10.49
2022-11-04T06:45:40.498Z,10.63
2022-11-04T06:48:11.319Z,10.73
2022-11-04T06:50:41.546Z,10.74
2022-11-04T06:53:09.305Z,10.71
2022-11-04T06:55:37.203Z,10.78
2022-11-04T06:58:04.720Z,10.90
2022-11-04T07:00:32.299Z,11.06
2022-11-04T07:02:59.696Z,11.25
2022-11-04T07:05:27.275Z,11.40
2022-11-04T07:07:54.693Z,11.47
2022-11-04T07:10:24.934Z,11.58
2022-11-04T07:12:56.899Z,11.58
2022-11-04T07:15:27.822Z,11.59
2022-11-04T07:17:59.299Z,11.56
2022-11-04T07:20:26.704Z,11.60
2022-11-04T07:22:59.817Z,11.67
2022-11-04T07:25:33.107Z,11.78
2022-11-04T07:28:03.325Z,11.87
2022-11-04T07:30:30.809Z,11.92
2022-11-04T07:32:59.144Z,11.90
2022-11-04T07:35:26.828Z,11.80
2022-11-04T07:37:55.435Z,11.73
2022-11-04T07:40:22.951Z,11.76
2022-11-04T07:43:07.053Z,11.73
2022-11-04T07:45:34.576Z,11.72
2022-11-04T07:48:02.140Z,11.67
2022-11-04T07:50:37.328Z,11.59
2022-11-04T07:53:14.477Z,11.62
2022-11-04T07:55:45.515Z,11.71
2022-11-04T07:58:16.229Z,11.83
2022-11-04T08:00:45.044Z,11.88
2022-11-04T08:03:15.241Z,11.91
2022-11-04T08:05:43.028Z,11.98
2022-11-04T08:08:15.699Z,12.10
2022-11-04T08:10:53.659Z,12.14
2022-11-04T08:13:22.675Z,12.11
2022-11-04T08:15:51.797Z,12.12
2022-11-04T08:18:34.901Z,12.06
2022-11-04T08:21:08.015Z,11.82
2022-11-04T08:23:36.028Z,11.69
2022-11-04T08:26:11.337Z,11.69
2022-11-04T08:28:42.837Z,11.78
2022-11-04T08:31:16.966Z,11.91
2022-11-04T08:33:48.447Z,11.92
2022-11-04T08:36:20.142Z,11.77
2022-11-04T08:38:51.523Z,11.67
2022-11-04T08:41:21.946Z,11.71
2022-11-04T08:43:54.537Z,11.70
2022-11-04T08:46:22.675Z,11.79
2022-11-04T08:48:49.951Z,11.83
2022-11-04T08:51:20.355Z,11.86
2022-11-04T08:53:48.150Z,11.92
2022-11-04T08:56:16.400Z,12.12
2022-11-04T08:58:45.594Z,12.28
2022-11-04T09:01:15.622Z,12.44
2022-11-04T09:03:43.577Z,12.52
2022-11-04T09:06:14.757Z,12.55
2022-11-04T09:08:43.486Z,12.49
2022-11-04T09:11:13.936Z,12.47
2022-11-04T09:13:42.307Z,12.53
2022-11-04T09:16:14.430Z,12.54
2022-11-04T09:19:05.075Z,12.55
2022-11-04T09:21:35.223Z,12.43
2022-11-04T09:24:02.697Z,12.39
2022-11-04T09:26:31.529Z,12.42
2022-11-04T09:29:00.141Z,12.38
2022-11-04T09:31:29.807Z,12.27
2022-11-04T09:33:57.743Z,12.18
2022-11-04T09:36:25.782Z,12.18
2022-11-04T09:38:52.993Z,12.27
2022-11-04T09:41:29.483Z,12.24
2022-11-04T09:44:14.765Z,12.20
2022-11-04T09:46:43.142Z,12.18
2022-11-04T09:49:13.318Z,12.24
2022-11-04T09:51:54.428Z,12.26
2022-11-04T09:54:28.454Z,12.27
2022-11-04T09:56:59.848Z,12.32
2022-11-04T09:59:30.239Z,12.40
2022-11-04T10:02:30.113Z,12.53
2022-11-04T10:05:06.354Z,12.63
2022-11-04T10:07:45.789Z,12.72
2022-11-04T10:10:46.086Z,12.74
2022-11-04T10:14:01.606Z,12.59
2022-11-04T10:16:46.826Z,12.69
2022-11-04T10:19:48.465Z,12.79
2022-11-04T10:22:31.499Z,12.80
2022-11-04T10:25:02.636Z,12.84
2022-11-04T10:27:34.894Z,12.83
2022-11-04T10:30:06.514Z,12.89
2022-11-04T10:32:35.011Z,12.94
2022-11-04T10:35:06.400Z,13.05
2022-11-04T10:37:36.912Z,13.07
2022-11-04T10:40:25.217Z,13.07
2022-11-04T10:42:53.749Z,13.06
2022-11-04T10:45:23.766Z,13.16
2022-11-04T10:47:58.324Z,13.22
2022-11-04T10:50:37.579Z,13.24
2022-11-04T10:53:20.728Z,13.29
2022-11-04T10:55:54.198Z,13.30
2022-11-04T10:58:27.743Z,13.23
2022-11-04T11:00:55.814Z,13.16
2022-11-04T11:03:25.130Z,13.15
2022-11-04T11:05:53.560Z,13.10
2022-11-04T11:08:31.936Z,13.08
2022-11-04T11:11:00.292Z,13.02
2022-11-04T11:13:36.123Z,12.97
2022-11-04T11:16:20.836Z,13.08
2022-11-04T11:19:18.392Z,13.28
2022-11-04T11:21:51.546Z,13.46
2022-11-04T11:24:25.997Z,13.63
2022-11-04T11:26:55.640Z,13.61
2022-11-04T11:29:25.714Z,13.68
2022-11-04T11:31:54.042Z,13.71
2022-11-04T11:34:26.671Z,13.71
2022-11-04T11:36:57.825Z,13.77
2022-11-04T11:39:32.783Z,13.83
2022-11-04T11:42:06.303Z,13.84
2022-11-04T11:44:49.242Z,13.72
2022-11-04T11:47:38.173Z,13.50
2022-11-04T11:50:34.474Z,13.45
2022-11-04T11:53:19.717Z,13.53
2022-11-04T11:55:51.458Z,13.57
2022-11-04T12:01:35.940Z,13.45
2022-11-04T12:10:23.987Z,13.26
2022-11-04T12:13:23.351Z,13.37
2022-11-04T12:16:02.821Z,13.35
2022-11-04T12:18:46.801Z,13.20
2022-11-04T12:21:21.530Z,13.11
2022-11-04T12:23:55.066Z,13.02
2022-11-04T12:26:57.730Z,12.94
2022-11-04T12:29:46.362Z,12.89
2022-11-04T12:32:30.259Z,12.84
2022-11-04T12:35:08.516Z,12.83
2022-11-04T12:37:58.131Z,12.79
2022-11-04T12:40:33.583Z,12.71
2022-11-04T12:43:22.335Z,12.71
2022-11-04T12:46:26.044Z,12.64
2022-11-04T12:49:07.384Z,12.63
2022-11-04T12:52:30.139Z,12.65
2022-11-04T12:55:25.377Z,12.64
2022-11-04T12:58:12.908Z,12.58
2022-11-04T13:00:46.622Z,12.55
2022-11-04T13:03:30.291Z,12.53
2022-11-04T13:06:06.095Z,12.52
2022-11-04T13:08:46.939Z,12.49
2022-11-04T13:11:25.983Z,12.48
2022-11-04T13:14:11.995Z,12.44
2022-11-04T13:16:42.596Z,12.43
2022-11-04T13:19:52.234Z,12.41
2022-11-04T13:22:48.876Z,12.35
2022-11-04T13:25:27.120Z,12.32
2022-11-04T13:27:55.986Z,12.33
2022-11-04T13:30:41.257Z,12.31
2022-11-04T13:33:43.989Z,12.32
2022-11-04T13:36:35.710Z,12.29
2022-11-04T13:39:22.428Z,12.23
2022-11-04T13:42:26.856Z,12.22
2022-11-04T13:44:58.699Z,12.22
2022-11-04T13:47:37.999Z,12.21
2022-11-04T13:50:05.979Z,12.19
2022-11-04T13:52:34.393Z,12.15
2022-11-04T13:55:04.694Z,12.11
2022-11-04T13:57:55.587Z,12.03
2022-11-04T14:00:24.927Z,11.99
2022-11-04T14:02:53.160Z,11.95
2022-11-04T14:05:29.829Z,11.91
2022-11-04T14:08:03.078Z,11.85
2022-11-04T14:10:49.219Z,11.79
2022-11-04T14:13:28.490Z,11.73
2022-11-04T14:16:24.643Z,11.68
2022-11-04T17:12:02.462Z,10.32
2022-11-04T17:14:33.015Z,10.34
2022-11-04T17:17:00.452Z,10.33
2022-11-04T17:19:33.422Z,10.33
2022-11-04T17:22:06.652Z,10.34
2022-11-04T17:24:38.064Z,10.30
2022-11-04T17:27:17.920Z,10.30
2022-11-04T17:29:45.761Z,10.30
2022-11-04T17:32:13.901Z,10.26
2022-11-04T17:34:41.495Z,10.28
2022-11-04T17:37:15.327Z,10.30
2022-11-04T17:39:44.114Z,10.27
2022-11-04T17:42:30.693Z,10.27
2022-11-04T17:45:01.390Z,10.27
2022-11-04T17:47:43.147Z,10.25
2022-11-04T17:50:11.816Z,10.27
2022-11-04T17:52:52.482Z,10.27
2022-11-04T17:55:26.186Z,10.28
2022-11-04T17:57:55.624Z,10.27
2022-11-04T18:00:48.786Z,10.29
2022-11-04T18:03:17.789Z,10.29
2022-11-04T18:05:55.332Z,10.32
2022-11-04T18:08:32.721Z,10.34
2022-11-04T18:11:02.443Z,10.35
2022-11-04T18:13:32.774Z,10.32
2022-11-04T18:16:13.731Z,10.30
2022-11-04T18:18:51.793Z,10.28
2022-11-04T18:21:21.185Z,10.25
2022-11-04T18:23:54.910Z,10.23
2022-11-04T18:26:22.624Z,10.20
2022-11-04T18:28:58.262Z,10.19
2022-11-04T18:31:34.520Z,10.18
2022-11-04T18:34:07.603Z,10.14
2022-11-04T18:36:40.700Z,10.12
2022-11-04T18:39:13.301Z,10.11
2022-11-04T18:41:41.863Z,10.09
2022-11-04T18:44:21.367Z,10.12
2022-11-04T18:46:49.821Z,10.12
2022-11-04T18:49:18.242Z,10.15
2022-11-04T18:51:45.572Z,10.16
2022-11-04T18:54:16.647Z,10.15
2022-11-04T18:56:44.116Z,10.12
2022-11-04T18:59:15.267Z,10.15
2022-11-04T19:01:43.983Z,10.15
2022-11-04T19:04:14.045Z,10.14
2022-11-04T19:06:44.227Z,10.16
2022-11-04T19:09:45.352Z,10.18
2022-11-04T19:12:27.236Z,10.17
2022-11-04T19:14:55.457Z,10.17
2022-11-04T19:17:22.881Z,10.18
2022-11-04T19:19:54.188Z,10.20
2022-11-04T19:22:25.997Z,10.22
2022-11-04T19:24:59.880Z,10.24
2022-11-04T19:27:38.446Z,10.25
2022-11-04T19:30:11.068Z,10.26
2022-11-04T19:35:26.559Z,10.28
2022-11-04T19:38:09.525Z,10.31
2022-11-04T19:40:51.710Z,10.32
2022-11-04T19:43:23.299Z,10.32
2022-11-04T19:45:50.872Z,10.33
2022-11-04T19:48:21.689Z,10.35
2022-11-04T19:50:50.686Z,10.32
2022-11-04T19:53:20.091Z,10.33
2022-11-04T19:59:16.672Z,10.31
2022-11-04T20:01:45.858Z,10.27
2022-11-04T20:08:13.372Z,10.28
2022-11-04T20:10:47.049Z,10.27
2022-11-04T20:13:41.334Z,10.26
2022-11-04T20:16:29.453Z,10.23
2022-11-04T20:19:06.970Z,10.22
2022-11-04T20:21:38.177Z,10.19
2022-11-04T20:24:07.675Z,10.18
2022-11-04T20:26:38.114Z,10.15
2022-11-04T20:29:11.263Z,10.12
2022-11-04T20:31:41.340Z,10.11
2022-11-04T20:34:11.648Z,10.11
2022-11-04T20:37:19.738Z,10.10
2022-11-04T20:39:52.288Z,10.08
2022-11-04T20:42:22.004Z,10.07
2022-11-04T20:45:02.029Z,10.04
2022-11-04T20:47:30.031Z,10.04
2022-11-04T20:49:58.706Z,10.05
2022-11-04T20:52:26.402Z,10.05
2022-11-04T20:54:56.477Z,10.06
2022-11-04T20:57:23.959Z,10.07
2022-11-04T20:59:53.562Z,10.09
2022-11-04T21:02:23.068Z,10.11
2022-11-04T21:04:55.233Z,10.12
2022-11-04T21:07:46.336Z,10.15
2022-11-04T21:10:20.704Z,10.15
2022-11-04T21:12:55.228Z,10.16
2022-11-04T21:15:45.784Z,10.17
2022-11-04T21:18:13.848Z,10.15
2022-11-04T21:20:45.406Z,10.18
2022-11-04T21:23:14.880Z,10.19
2022-11-04T21:25:48.601Z,10.19
2022-11-04T21:28:17.811Z,10.19
2022-11-04T21:30:48.824Z,10.19
2022-11-04T21:33:16.512Z,10.16
2022-11-04T21:35:43.856Z,10.13
2022-11-04T21:38:16.749Z,10.11
2022-11-04T21:40:45.016Z,10.10
2022-11-04T21:43:13.594Z,10.07
2022-11-04T21:45:41.603Z,10.06
2022-11-04T21:48:14.153Z,10.05
2022-11-04T21:50:44.521Z,10.03
2022-11-04T21:53:13.225Z,10.00
2022-11-04T21:55:44.941Z,10.00
2022-11-04T21:58:12.591Z,9.99
2022-11-04T22:00:40.373Z,10.00
2022-11-04T22:03:13.905Z,9.98
2022-11-04T22:05:44.832Z,9.97
2022-11-04T22:08:19.968Z,9.97
2022-11-04T22:10:48.288Z,9.98
2022-11-04T22:13:17.203Z,9.98
2022-11-04T22:16:04.516Z,10.00
2022-11-04T22:18:33.157Z,10.02
2022-11-04T22:21:05.933Z,10.04
2022-11-04T22:23:35.337Z,10.04
2022-11-04T22:26:15.042Z,10.07
2022-11-04T22:28:47.550Z,10.07
2022-11-04T22:31:21.744Z,10.05
2022-11-04T22:33:51.532Z,10.02
2022-11-04T22:36:25.821Z,9.97
2022-11-04T22:38:54.293Z,9.97
2022-11-04T22:41:23.747Z,9.97
2022-11-04T22:43:52.911Z,9.95
2022-11-04T22:46:26.346Z,9.96
2022-11-04T22:48:53.736Z,9.98
2022-11-04T22:51:21.055Z,9.99
2022-11-04T22:53:56.613Z,10.00
2022-11-04T22:56:26.370Z,9.94
2022-11-04T22:58:54.467Z,9.88
2022-11-04T23:01:22.320Z,9.87
2022-11-04T23:03:54.616Z,9.88
2022-11-04T23:06:22.269Z,9.91
2022-11-04T23:08:49.636Z,9.91
2022-11-04T23:11:41.074Z,9.92
2022-11-04T23:14:30.227Z,9.94
2022-11-04T23:17:19.055Z,9.94
2022-11-04T23:19:47.224Z,9.96
2022-11-04T23:22:32.868Z,9.95
2022-11-04T23:25:09.308Z,9.95
2022-11-04T23:28:05.171Z,9.94
2022-11-04T23:30:35.919Z,9.94
2022-11-04T23:33:14.310Z,9.95
2022-11-04T23:36:03.453Z,9.94
2022-11-04T23:38:31.565Z,9.95
2022-11-04T23:41:26.670Z,9.96
2022-11-04T23:43:53.932Z,9.94
2022-11-04T23:46:43.365Z,9.93
2022-11-04T23:49:14.701Z,9.91
2022-11-04T23:52:00.820Z,9.91
2022-11-04T23:54:46.793Z,9.90
2022-11-04T23:57:34.606Z,9.90
